Daily Weather Observations
Now
22.0°C


< Previous Day
Next Day >
Select a different date below:
/ /
Daily Weather Observations for Eton
For Friday 19th January 2018

This table is designed for ease of comparison to Bureau of Meteorology recorded weather data.

Station Details Name: ETON Lat: -21.27 Lon: 148.97 Height: 81.1 m
Date/Time
EST
Temp
°C
App
Temp
°C
Dew
Point
°C
Rel
Hum
%
Delta-T
°C
Wind Press
QNH
hPa
Press
MSL
hPa
Rain since
9am
mm
Dir  Spd
km/h
Gust
km/h
Spd
kts
Gust
kts
19/11:30pm 22.3 24.4 18.4 80 2.6 SE 6 8 3 4 1010.8 1010.8 0.0
19/11:00pm 22.6 24.0 18.4 77 2.8 SE 8 10 4 5 1011.1 1011.1 0.0
19/10:30pm 22.6 24.2 18.7 79 2.6 SE 11 13 6 7 1011.2 1011.2 0.0
19/10:00pm 22.7 25.0 19.8 84 2.0 SE 8 10 4 5 1011.2 1011.2 0.0
19/09:30pm 22.9 24.7 19.2 81 2.5 SE 8 10 4 5 1011.1 1011.1 0.0
19/09:00pm 23.0 25.0 19.0 78 2.7 SE 7 10 4 5 1011.0 1011.0 0.0
19/08:30pm 23.3 24.9 18.8 76 3.0 SE 9 13 5 7 1011.0 1011.0 0.0
19/08:00pm 23.2 24.9 19.1 78 2.8 SE 11 14 6 8 1011.0 1011.0 0.0
19/07:30pm 23.7 25.1 19.5 78 2.8 SE 11 13 6 7 1011.0 1011.0 0.0
19/07:00pm 24.4 25.5 20.1 78 2.9 ESE 13 18 7 10 1010.9 1010.9 0.0
19/06:30pm 25.5 26.6 19.5 71 4.1 ESE 18 29 10 16 1010.8 1010.8 0.0
19/06:00pm 26.8 28.1 19.7 66 4.8 ESE 23 37 12 20 1010.4 1010.4 0.0
19/05:30pm 27.6 29.1 19.8 63 5.3 ESE 28 40 15 22 1010.2 1010.2 0.0
19/05:00pm 28.6 30.1 19.8 59 6.0 ESE 29 40 16 22 1009.9 1009.9 0.0
19/04:30pm 29.6 31.1 19.4 55 6.9 ESE 31 45 17 24 1009.7 1009.7 0.0
19/04:00pm 29.7 31.2 19.4 54 7.0 ESE 31 40 17 22 1009.8 1009.8 0.0
19/03:30pm 30.0 31.5 19.5 54 7.1 ESE 34 47 18 25 1009.7 1009.7 0.0
19/03:00pm 30.2 31.9 19.5 54 7.3 ESE 36 50 19 27 1010.0 1010.0 0.0
19/02:30pm 31.1 33.0 19.9 52 7.6 ESE 31 44 17 24 1010.4 1010.4 0.0
19/02:00pm 31.1 33.0 19.9 53 7.6 ESE 28 50 15 27 1010.5 1010.5 0.0
19/01:30pm 30.4 31.8 19.4 52 7.4 ESE 37 47 20 25 1011.1 1011.1 0.0
19/01:00pm 30.7 32.1 19.2 50 7.7 ESE 32 61 17 33 1011.4 1011.4 0.0
19/12:30pm 31.3 33.1 19.8 54 7.8 ESE 27 44 15 24 1011.6 1011.6 0.0
19/12:00pm 30.8 32.1 19.0 51 7.9 ESE 28 44 15 24 1012.0 1012.0 0.0
19/11:30am 29.7 31.2 19.6 55 6.9 ESE 34 45 18 24 1012.4 1012.4 0.0
19/11:00am 29.9 31.7 20.0 58 6.8 ESE 26 50 14 27 1012.7 1012.7 0.0
19/10:30am 29.7 31.7 20.3 57 6.5 ESE 27 44 15 24 1013.0 1013.0 0.0
19/10:00am 28.7 30.3 19.8 59 6.1 ESE 31 50 17 27 1013.2 1013.2 0.0
19/09:30am 28.6 30.1 19.7 60 6.0 ESE 22 33 12 18 1013.4 1013.4 0.0
19/09:00am 28.0 29.4 19.4 62 5.8 ESE 26 41 14 22 1013.4 1013.4 0.0
19/08:30am 26.8 28.2 19.9 66 4.7 ESE 29 37 16 20 1013.3 1013.3 0.0
19/08:00am 26.5 27.7 19.5 67 4.7 ESE 20 24 11 13 1013.3 1013.3 0.0
19/07:30am 24.8 26.8 19.7 76 3.5 E 7 13 4 7 1013.2 1013.2 0.0
19/07:00am 22.7 26.2 19.7 84 2.0 CALM 0 0 0 0 1013.0 1013.0 0.0
19/06:30am 21.2 24.1 18.8 88 1.6 ESE 1 4 1 2 1013.0 1013.0 0.0
19/06:00am 19.4 22.3 18.4 95 0.7 CALM 0 3 0 2 1012.8 1012.8 0.0
19/05:30am 19.0 21.5 18.2 100 0.5 ESE 4 8 2 4 1012.7 1012.7 0.0
19/05:00am 20.8 22.9 18.3 87 1.7 ESE 6 10 3 5 1012.3 1012.3 0.0
19/04:30am 20.1 22.3 18.1 89 1.3 ESE 3 8 2 4 1012.0 1012.0 0.0
19/04:00am 21.6 23.3 18.2 86 2.2 SE 6 8 3 4 1011.9 1011.9 0.0
19/03:30am 22.2 23.4 18.4 79 2.5 SE 11 13 6 7 1011.6 1011.6 0.0
19/03:00am 22.0 24.4 19.0 84 2.0 SE 5 8 3 4 1011.9 1011.9 0.0
19/02:30am 22.4 24.1 19.0 82 2.3 SE 8 13 4 7 1012.1 1012.1 0.0
19/02:00am 22.6 24.0 19.2 81 2.3 SE 10 14 5 8 1012.5 1012.5 0.0
19/01:30am 22.5 24.5 19.0 81 2.3 SE 9 13 5 7 1012.8 1012.8 0.0
19/01:00am 22.5 24.0 19.0 81 2.3 SE 10 14 5 8 1013.3 1013.3 0.0
19/12:30am 22.6 23.7 19.1 81 2.4 SE 12 17 6 9 1013.6 1013.6 0.0
19/12:00am 22.9 24.0 19.0 79 2.6 SE 12 17 6 9 1013.9 1013.9 0.0
 


NOTE: The apparent temperature specified in the table above is calculated using both the Heat Index and Steadman method. This differs to the Bureau of Meteorology's calculation which uses the Steadman method alone.

Copyright (c) ASPGWeather, 2018. Radar images are courtesy of the Australian Government Bureau of Meteorology, 2018.